sensor_id;sensor_type;location;lat;lon;timestamp;pressure;altitude;pressure_sealevel;temperature;humidity
50854;BME280;44154;45.506;-122.806;2022-07-24T00:00:54;100960.69;;;25.67;42.40
50854;BME280;44154;45.506;-122.806;2022-07-24T00:03:22;100962.41;;;25.73;42.75
50854;BME280;44154;45.506;-122.806;2022-07-24T00:05:48;100955.78;;;25.69;42.22
50854;BME280;44154;45.506;-122.806;2022-07-24T00:08:14;100961.91;;;25.76;42.70
50854;BME280;44154;45.506;-122.806;2022-07-24T00:10:40;100956.16;;;25.77;42.74
50854;BME280;44154;45.506;-122.806;2022-07-24T00:13:06;100951.75;;;25.76;42.63
50854;BME280;44154;45.506;-122.806;2022-07-24T00:15:33;100922.59;;;25.65;42.68
50854;BME280;44154;45.506;-122.806;2022-07-24T00:17:59;100950.97;;;25.81;42.65
50854;BME280;44154;45.506;-122.806;2022-07-24T00:20:25;100949.88;;;25.82;42.47
50854;BME280;44154;45.506;-122.806;2022-07-24T00:22:51;100938.31;;;25.75;42.34
50854;BME280;44154;45.506;-122.806;2022-07-24T00:25:17;100948.28;;;25.86;42.41
50854;BME280;44154;45.506;-122.806;2022-07-24T00:27:44;100946.09;;;25.88;42.66
50854;BME280;44154;45.506;-122.806;2022-07-24T00:30:10;100951.31;;;25.90;42.71
50854;BME280;44154;45.506;-122.806;2022-07-24T00:32:36;100941.94;;;25.86;42.41
50854;BME280;44154;45.506;-122.806;2022-07-24T00:35:03;100922.72;;;25.80;42.71
50854;BME280;44154;45.506;-122.806;2022-07-24T00:37:29;100938.47;;;25.95;42.69
50854;BME280;44154;45.506;-122.806;2022-07-24T00:39:55;100927.50;;;25.95;42.38
50854;BME280;44154;45.506;-122.806;2022-07-24T00:42:21;100930.34;;;26.01;42.52
50854;BME280;44154;45.506;-122.806;2022-07-24T00:44:48;100930.34;;;26.01;42.38
50854;BME280;44154;45.506;-122.806;2022-07-24T00:47:14;100890.66;;;25.81;42.84
50854;BME280;44154;45.506;-122.806;2022-07-24T00:49:40;100928.72;;;26.05;42.72
50854;BME280;44154;45.506;-122.806;2022-07-24T00:52:06;100924.63;;;26.07;42.70
50854;BME280;44154;45.506;-122.806;2022-07-24T00:54:32;100903.41;;;25.97;42.51
50854;BME280;44154;45.506;-122.806;2022-07-24T00:56:58;100918.63;;;26.10;42.69
50854;BME280;44154;45.506;-122.806;2022-07-24T00:59:25;100905.94;;;26.04;42.57
50854;BME280;44154;45.506;-122.806;2022-07-24T01:01:51;100899.09;;;26.02;42.51
50854;BME280;44154;45.506;-122.806;2022-07-24T01:04:18;100915.91;;;26.16;42.51
50854;BME280;44154;45.506;-122.806;2022-07-24T01:06:45;100916.75;;;26.16;42.84
50854;BME280;44154;45.506;-122.806;2022-07-24T01:09:11;100919.50;;;26.16;42.47
50854;BME280;44154;45.506;-122.806;2022-07-24T01:11:38;100915.09;;;26.20;42.52
50854;BME280;44154;45.506;-122.806;2022-07-24T01:14:05;100911.56;;;26.20;42.29
50854;BME280;44154;45.506;-122.806;2022-07-24T01:16:35;100911.03;;;26.23;42.52
50854;BME280;44154;45.506;-122.806;2022-07-24T01:19:01;100896.09;;;26.08;42.53
50854;BME280;44154;45.506;-122.806;2022-07-24T01:21:27;100907.19;;;26.24;42.31
50854;BME280;44154;45.506;-122.806;2022-07-24T01:23:54;100912.47;;;26.30;42.51
50854;BME280;44154;45.506;-122.806;2022-07-24T01:26:20;100913.00;;;26.33;42.54
50854;BME280;44154;45.506;-122.806;2022-07-24T01:28:46;100885.47;;;26.17;42.30
50854;BME280;44154;45.506;-122.806;2022-07-24T01:31:12;100912.75;;;26.34;42.40
50854;BME280;44154;45.506;-122.806;2022-07-24T01:33:38;100890.41;;;26.20;42.59
50854;BME280;44154;45.506;-122.806;2022-07-24T01:36:05;100911.41;;;26.37;42.23
50854;BME280;44154;45.506;-122.806;2022-07-24T01:38:31;100911.41;;;26.37;42.50
50854;BME280;44154;45.506;-122.806;2022-07-24T01:40:57;100920.75;;;26.41;42.18
50854;BME280;44154;45.506;-122.806;2022-07-24T01:43:23;100919.63;;;26.37;42.39
50854;BME280;44154;45.506;-122.806;2022-07-24T01:45:49;100922.16;;;26.43;42.29
50854;BME280;44154;45.506;-122.806;2022-07-24T01:48:16;100916.41;;;26.45;42.66
50854;BME280;44154;45.506;-122.806;2022-07-24T01:50:42;100902.38;;;26.41;42.26
50854;BME280;44154;45.506;-122.806;2022-07-24T01:53:08;100892.47;;;26.35;42.18
50854;BME280;44154;45.506;-122.806;2022-07-24T01:55:34;100912.84;;;26.49;42.48
50854;BME280;44154;45.506;-122.806;2022-07-24T01:58:00;100891.38;;;26.41;42.53
50854;BME280;44154;45.506;-122.806;2022-07-24T02:00:27;100910.91;;;26.50;42.33
50854;BME280;44154;45.506;-122.806;2022-07-24T02:02:53;100906.56;;;26.54;42.10
50854;BME280;44154;45.506;-122.806;2022-07-24T02:05:19;100908.22;;;26.55;42.22
50854;BME280;44154;45.506;-122.806;2022-07-24T02:07:45;100906.03;;;26.57;42.14
50854;BME280;44154;45.506;-122.806;2022-07-24T02:10:13;100897.19;;;26.50;42.31
50854;BME280;44154;45.506;-122.806;2022-07-24T02:12:40;100899.41;;;26.53;42.26
50854;BME280;44154;45.506;-122.806;2022-07-24T02:15:07;100890.34;;;26.53;42.08
50854;BME280;44154;45.506;-122.806;2022-07-24T02:17:33;100910.19;;;26.65;42.45
50854;BME280;44154;45.506;-122.806;2022-07-24T02:19:59;100901.69;;;26.66;42.37
50854;BME280;44154;45.506;-122.806;2022-07-24T02:22:25;100908.81;;;26.67;42.39
50854;BME280;44154;45.506;-122.806;2022-07-24T02:24:51;100905.81;;;26.69;42.35
50854;BME280;44154;45.506;-122.806;2022-07-24T02:27:18;100911.06;;;26.71;42.44
50854;BME280;44154;45.506;-122.806;2022-07-24T02:29:44;100912.72;;;26.72;42.29
50854;BME280;44154;45.506;-122.806;2022-07-24T02:32:10;100917.13;;;26.73;42.07
50854;BME280;44154;45.506;-122.806;2022-07-24T02:34:36;100897.00;;;26.67;42.43
50854;BME280;44154;45.506;-122.806;2022-07-24T02:37:02;100918.78;;;26.74;42.40
50854;BME280;44154;45.506;-122.806;2022-07-24T02:39:28;100907.75;;;26.69;42.28
50854;BME280;44154;45.506;-122.806;2022-07-24T02:41:54;100917.66;;;26.75;42.06
50854;BME280;44154;45.506;-122.806;2022-07-24T02:44:20;100917.41;;;26.76;42.48
50854;BME280;44154;45.506;-122.806;2022-07-24T02:46:47;100914.66;;;26.76;42.10
50854;BME280;44154;45.506;-122.806;2022-07-24T02:49:13;100911.63;;;26.78;42.19
50854;BME280;44154;45.506;-122.806;2022-07-24T02:51:39;100914.16;;;26.79;41.94
50854;BME280;44154;45.506;-122.806;2022-07-24T02:54:05;100917.69;;;26.80;42.06
50854;BME280;44154;45.506;-122.806;2022-07-24T02:56:31;100923.75;;;26.82;42.26
50854;BME280;44154;45.506;-122.806;2022-07-24T02:58:58;100900.34;;;26.69;42.00
50854;BME280;44154;45.506;-122.806;2022-07-24T03:01:24;100913.59;;;26.82;42.34
50854;BME280;44154;45.506;-122.806;2022-07-24T03:03:50;100924.31;;;26.84;41.93
50854;BME280;44154;45.506;-122.806;2022-07-24T03:06:16;100905.31;;;26.77;42.28
50854;BME280;44154;45.506;-122.806;2022-07-24T03:08:43;100920.47;;;26.85;42.07
50854;BME280;44154;45.506;-122.806;2022-07-24T03:11:09;100915.81;;;26.86;42.20
50854;BME280;44154;45.506;-122.806;2022-07-24T03:13:35;100920.47;;;26.85;42.32
50854;BME280;44154;45.506;-122.806;2022-07-24T03:16:01;100921.03;;;26.87;42.18
50854;BME280;44154;45.506;-122.806;2022-07-24T03:18:27;100926.53;;;26.87;42.17
50854;BME280;44154;45.506;-122.806;2022-07-24T03:20:53;100914.16;;;26.79;42.03
50854;BME280;44154;45.506;-122.806;2022-07-24T03:23:19;100931.75;;;26.89;42.03
50854;BME280;44154;45.506;-122.806;2022-07-24T03:25:46;100925.97;;;26.90;42.11
50854;BME280;44154;45.506;-122.806;2022-07-24T03:28:12;100927.06;;;26.84;41.94
50854;BME280;44154;45.506;-122.806;2022-07-24T03:30:38;100933.13;;;26.91;42.07
50854;BME280;44154;45.506;-122.806;2022-07-24T03:33:04;100933.94;;;26.92;41.73
50854;BME280;44154;45.506;-122.806;2022-07-24T03:35:31;100930.13;;;26.93;42.24
50854;BME280;44154;45.506;-122.806;2022-07-24T03:37:57;100935.34;;;26.94;42.06
50854;BME280;44154;45.506;-122.806;2022-07-24T03:40:23;100938.09;;;26.94;42.14
50854;BME280;44154;45.506;-122.806;2022-07-24T03:42:49;100938.09;;;26.94;41.91
50854;BME280;44154;45.506;-122.806;2022-07-24T03:45:16;100925.44;;;26.93;42.00
50854;BME280;44154;45.506;-122.806;2022-07-24T03:47:42;100929.28;;;26.92;42.02
50854;BME280;44154;45.506;-122.806;2022-07-24T03:50:08;100934.25;;;26.95;41.92
50854;BME280;44154;45.506;-122.806;2022-07-24T03:52:34;100915.78;;;26.80;41.62
50854;BME280;44154;45.506;-122.806;2022-07-24T03:55:00;100904.50;;;26.77;42.03
50854;BME280;44154;45.506;-122.806;2022-07-24T03:57:26;100933.13;;;26.91;42.00
50854;BME280;44154;45.506;-122.806;2022-07-24T03:59:52;100940.28;;;26.97;41.81
50854;BME280;44154;45.506;-122.806;2022-07-24T04:02:19;100951.28;;;26.97;41.70
50854;BME280;44154;45.506;-122.806;2022-07-24T04:04:45;100952.09;;;26.98;41.87
50854;BME280;44154;45.506;-122.806;2022-07-24T04:07:11;100952.09;;;26.98;42.18
50854;BME280;44154;45.506;-122.806;2022-07-24T04:09:38;100947.41;;;26.93;42.20
50854;BME280;44154;45.506;-122.806;2022-07-24T04:12:04;100935.88;;;26.91;41.82
50854;BME280;44154;45.506;-122.806;2022-07-24T04:14:30;100957.31;;;26.99;42.19
50854;BME280;44154;45.506;-122.806;2022-07-24T04:16:58;100923.16;;;26.75;42.14
50854;BME280;44154;45.506;-122.806;2022-07-24T04:19:24;100953.47;;;26.95;41.86
50854;BME280;44154;45.506;-122.806;2022-07-24T04:21:50;100957.84;;;26.96;41.74
50854;BME280;44154;45.506;-122.806;2022-07-24T04:24:16;100956.22;;;26.95;42.07
50854;BME280;44154;45.506;-122.806;2022-07-24T04:26:42;100969.41;;;26.98;41.98
50854;BME280;44154;45.506;-122.806;2022-07-24T04:29:09;100957.59;;;26.93;41.72
50854;BME280;44154;45.506;-122.806;2022-07-24T04:31:36;100977.66;;;26.98;42.03
50854;BME280;44154;45.506;-122.806;2022-07-24T04:34:02;100962.22;;;26.92;41.78
50854;BME280;44154;45.506;-122.806;2022-07-24T04:36:28;100959.47;;;26.92;42.08
50854;BME280;44154;45.506;-122.806;2022-07-24T04:38:54;100956.75;;;26.92;41.74
50854;BME280;44154;45.506;-122.806;2022-07-24T04:41:20;100969.16;;;27.00;41.96
50854;BME280;44154;45.506;-122.806;2022-07-24T04:43:46;100966.94;;;26.97;41.80
50854;BME280;44154;45.506;-122.806;2022-07-24T04:46:13;100963.91;;;26.93;42.02
50854;BME280;44154;45.506;-122.806;2022-07-24T04:48:39;100979.28;;;26.99;41.56
50854;BME280;44154;45.506;-122.806;2022-07-24T04:51:05;100964.75;;;26.94;41.99
50854;BME280;44154;45.506;-122.806;2022-07-24T04:53:31;100974.66;;;27.00;41.56
50854;BME280;44154;45.506;-122.806;2022-07-24T04:55:57;100971.88;;;26.95;41.66
50854;BME280;44154;45.506;-122.806;2022-07-24T04:58:25;100940.47;;;26.75;41.76
50854;BME280;44154;45.506;-122.806;2022-07-24T05:00:51;100979.28;;;26.99;41.48
50854;BME280;44154;45.506;-122.806;2022-07-24T05:03:17;100982.03;;;26.99;41.75
50854;BME280;44154;45.506;-122.806;2022-07-24T05:05:43;100964.97;;;26.92;41.76
50854;BME280;44154;45.506;-122.806;2022-07-24T05:08:10;100980.41;;;26.98;41.87
50854;BME280;44154;45.506;-122.806;2022-07-24T05:10:36;100976.00;;;26.97;41.46
50854;BME280;44154;45.506;-122.806;2022-07-24T05:13:03;100949.84;;;26.79;41.80
50854;BME280;44154;45.506;-122.806;2022-07-24T05:15:29;100986.44;;;27.00;41.46
50854;BME280;44154;45.506;-122.806;2022-07-24T05:17:55;100972.16;;;26.98;41.71
50854;BME280;44154;45.506;-122.806;2022-07-24T05:20:21;100982.88;;;27.00;41.81
50854;BME280;44154;45.506;-122.806;2022-07-24T05:22:48;100977.66;;;26.98;41.51
50854;BME280;44154;45.506;-122.806;2022-07-24T05:25:14;100973.53;;;26.96;41.71
50854;BME280;44154;45.506;-122.806;2022-07-24T05:27:40;100974.91;;;26.98;41.28
50854;BME280;44154;45.506;-122.806;2022-07-24T05:30:07;100970.78;;;26.96;41.51
50854;BME280;44154;45.506;-122.806;2022-07-24T05:32:33;100954.53;;;26.84;41.49
50854;BME280;44154;45.506;-122.806;2022-07-24T05:34:59;100963.88;;;26.88;41.62
50854;BME280;44154;45.506;-122.806;2022-07-24T05:37:25;100985.91;;;26.98;41.83
50854;BME280;44154;45.506;-122.806;2022-07-24T05:39:51;100974.34;;;26.96;41.37
50854;BME280;44154;45.506;-122.806;2022-07-24T05:42:18;100960.56;;;26.81;41.72
50854;BME280;44154;45.506;-122.806;2022-07-24T05:44:44;100977.63;;;26.88;41.90
50854;BME280;44154;45.506;-122.806;2022-07-24T05:47:10;100957.53;;;26.82;41.53
50854;BME280;44154;45.506;-122.806;2022-07-24T05:49:36;100965.25;;;26.86;41.54
50854;BME280;44154;45.506;-122.806;2022-07-24T05:52:02;100974.63;;;26.95;41.65
50854;BME280;44154;45.506;-122.806;2022-07-24T05:54:28;100951.19;;;26.82;41.58
50854;BME280;44154;45.506;-122.806;2022-07-24T05:56:55;100965.78;;;26.88;41.37
50854;BME280;44154;45.506;-122.806;2022-07-24T05:59:21;100954.78;;;26.82;41.45
50854;BME280;44154;45.506;-122.806;2022-07-24T06:01:47;100961.97;;;26.89;41.63
50854;BME280;44154;45.506;-122.806;2022-07-24T06:04:13;100950.38;;;26.81;41.47
50854;BME280;44154;45.506;-122.806;2022-07-24T06:06:39;100967.72;;;26.92;41.65
50854;BME280;44154;45.506;-122.806;2022-07-24T06:09:05;100962.50;;;26.91;41.67
50854;BME280;44154;45.506;-122.806;2022-07-24T06:11:32;100962.78;;;26.89;41.56
50854;BME280;44154;45.506;-122.806;2022-07-24T06:13:58;100958.91;;;26.80;41.57
50854;BME280;44154;45.506;-122.806;2022-07-24T06:16:24;100944.59;;;26.78;41.27
50854;BME280;44154;45.506;-122.806;2022-07-24T06:18:50;100909.84;;;26.56;41.63
50854;BME280;44154;45.506;-122.806;2022-07-24T06:21:16;100955.66;;;26.88;41.53
50854;BME280;44154;45.506;-122.806;2022-07-24T06:23:42;100944.59;;;26.78;41.19
50854;BME280;44154;45.506;-122.806;2022-07-24T06:26:08;100959.47;;;26.87;41.63
50854;BME280;44154;45.506;-122.806;2022-07-24T06:28:35;100949.03;;;26.84;41.21
50854;BME280;44154;45.506;-122.806;2022-07-24T06:31:01;100947.63;;;26.81;41.47
50854;BME280;44154;45.506;-122.806;2022-07-24T06:33:27;100956.16;;;26.85;41.48
50854;BME280;44154;45.506;-122.806;2022-07-24T06:35:53;100956.44;;;26.83;41.44
50854;BME280;44154;45.506;-122.806;2022-07-24T06:38:19;100959.16;;;26.83;41.30
50854;BME280;44154;45.506;-122.806;2022-07-24T06:40:45;100962.75;;;26.84;41.41
50854;BME280;44154;45.506;-122.806;2022-07-24T06:43:11;100953.66;;;26.78;41.59
50854;BME280;44154;45.506;-122.806;2022-07-24T06:45:37;100942.91;;;26.72;41.57
50854;BME280;44154;45.506;-122.806;2022-07-24T06:48:04;100951.16;;;26.72;41.24
50854;BME280;44154;45.506;-122.806;2022-07-24T06:50:30;100960.25;;;26.77;41.20
50854;BME280;44154;45.506;-122.806;2022-07-24T06:52:57;100953.66;;;26.78;41.19
50854;BME280;44154;45.506;-122.806;2022-07-24T06:55:23;100955.34;;;26.79;41.25
50854;BME280;44154;45.506;-122.806;2022-07-24T06:57:49;100960.25;;;26.77;41.35
50854;BME280;44154;45.506;-122.806;2022-07-24T07:00:15;100953.63;;;26.73;41.37
50854;BME280;44154;45.506;-122.806;2022-07-24T07:02:42;100965.47;;;26.79;41.41
50854;BME280;44154;45.506;-122.806;2022-07-24T07:05:09;100947.78;;;26.64;41.41
50854;BME280;44154;45.506;-122.806;2022-07-24T07:07:36;100969.56;;;26.76;41.40
50854;BME280;44154;45.506;-122.806;2022-07-24T07:10:03;100949.72;;;26.64;41.47
50854;BME280;44154;45.506;-122.806;2022-07-24T07:12:29;100958.31;;;26.73;41.29
50854;BME280;44154;45.506;-122.806;2022-07-24T07:14:55;100956.09;;;26.70;41.15
50854;BME280;44154;45.506;-122.806;2022-07-24T07:17:24;100961.59;;;26.75;41.13
50854;BME280;44154;45.506;-122.806;2022-07-24T07:19:50;100965.47;;;26.74;41.26
50854;BME280;44154;45.506;-122.806;2022-07-24T07:22:16;100963.78;;;26.73;41.35
50854;BME280;44154;45.506;-122.806;2022-07-24T07:24:42;100957.50;;;26.72;41.13
50854;BME280;44154;45.506;-122.806;2022-07-24T07:27:08;100962.13;;;26.72;41.29
50854;BME280;44154;45.506;-122.806;2022-07-24T07:29:35;100936.47;;;26.56;41.12
50854;BME280;44154;45.506;-122.806;2022-07-24T07:32:01;100955.81;;;26.71;41.17
50854;BME280;44154;45.506;-122.806;2022-07-24T07:34:27;100954.16;;;26.70;41.42
50854;BME280;44154;45.506;-122.806;2022-07-24T07:36:53;100952.50;;;26.69;41.43
50854;BME280;44154;45.506;-122.806;2022-07-24T07:39:19;100939.28;;;26.61;41.47
50854;BME280;44154;45.506;-122.806;2022-07-24T07:41:45;100952.75;;;26.67;41.06
50854;BME280;44154;45.506;-122.806;2022-07-24T07:44:11;100927.91;;;26.47;41.35
50854;BME280;44154;45.506;-122.806;2022-07-24T07:46:37;100926.03;;;26.53;41.07
50854;BME280;44154;45.506;-122.806;2022-07-24T07:49:04;100957.69;;;26.65;41.16
50854;BME280;44154;45.506;-122.806;2022-07-24T07:51:30;100957.69;;;26.65;41.37
50854;BME280;44154;45.506;-122.806;2022-07-24T07:53:56;100964.00;;;26.66;41.04
50854;BME280;44154;45.506;-122.806;2022-07-24T07:56:22;100957.69;;;26.65;41.26
50854;BME280;44154;45.506;-122.806;2022-07-24T07:58:49;100951.63;;;26.63;41.48
50854;BME280;44154;45.506;-122.806;2022-07-24T08:01:15;100948.88;;;26.63;41.25
50854;BME280;44154;45.506;-122.806;2022-07-24T08:03:41;100956.56;;;26.61;41.56
50854;BME280;44154;45.506;-122.806;2022-07-24T08:06:07;100883.56;;;26.18;41.38
50854;BME280;44154;45.506;-122.806;2022-07-24T08:08:33;100959.31;;;26.61;41.15
50854;BME280;44154;45.506;-122.806;2022-07-24T08:10:59;100958.75;;;26.59;41.10
50854;BME280;44154;45.506;-122.806;2022-07-24T08:13:26;100951.03;;;26.56;41.23
50854;BME280;44154;45.506;-122.806;2022-07-24T08:15:52;100954.59;;;26.57;41.03
50854;BME280;44154;45.506;-122.806;2022-07-24T08:18:19;100956.50;;;26.56;41.51
50854;BME280;44154;45.506;-122.806;2022-07-24T08:20:45;100937.25;;;26.46;41.23
50854;BME280;44154;45.506;-122.806;2022-07-24T08:23:11;100953.75;;;26.51;41.48
50854;BME280;44154;45.506;-122.806;2022-07-24T08:25:37;100955.16;;;26.54;41.04
50854;BME280;44154;45.506;-122.806;2022-07-24T08:28:04;100958.44;;;26.51;41.41
50854;BME280;44154;45.506;-122.806;2022-07-24T08:30:30;100956.50;;;26.51;41.19
50854;BME280;44154;45.506;-122.806;2022-07-24T08:32:56;100957.56;;;26.50;41.29
50854;BME280;44154;45.506;-122.806;2022-07-24T08:35:22;100932.22;;;26.33;41.31
50854;BME280;44154;45.506;-122.806;2022-07-24T08:37:49;100967.75;;;26.49;41.35
50854;BME280;44154;45.506;-122.806;2022-07-24T08:40:16;100943.75;;;26.35;41.39
50854;BME280;44154;45.506;-122.806;2022-07-24T08:42:42;100960.03;;;26.46;40.93
50854;BME280;44154;45.506;-122.806;2022-07-24T08:45:09;100969.09;;;26.47;41.04
50854;BME280;44154;45.506;-122.806;2022-07-24T08:47:37;100946.47;;;26.29;41.31
50854;BME280;44154;45.506;-122.806;2022-07-24T08:50:05;100959.72;;;26.43;41.33
50854;BME280;44154;45.506;-122.806;2022-07-24T08:52:33;100957.56;;;26.45;41.04
50854;BME280;44154;45.506;-122.806;2022-07-24T08:55:01;100959.47;;;26.44;40.89
50854;BME280;44154;45.506;-122.806;2022-07-24T08:57:27;100924.47;;;26.24;41.29
50854;BME280;44154;45.506;-122.806;2022-07-24T08:59:54;100941.81;;;26.30;41.08
50854;BME280;44154;45.506;-122.806;2022-07-24T09:02:20;100958.06;;;26.42;41.02
50854;BME280;44154;45.506;-122.806;2022-07-24T09:04:47;100954.78;;;26.40;40.96
50854;BME280;44154;45.506;-122.806;2022-07-24T09:07:19;100950.91;;;26.36;41.23
50854;BME280;44154;45.506;-122.806;2022-07-24T09:10:07;100959.44;;;26.39;41.32
50854;BME280;44154;45.506;-122.806;2022-07-24T09:12:36;100948.47;;;26.39;40.99
50854;BME280;44154;45.506;-122.806;2022-07-24T09:15:14;100920.59;;;26.20;41.21
50854;BME280;44154;45.506;-122.806;2022-07-24T09:17:55;100949.00;;;26.36;41.05
50854;BME280;44154;45.506;-122.806;2022-07-24T09:20:23;100943.16;;;26.27;41.14
50854;BME280;44154;45.506;-122.806;2022-07-24T09:22:50;100939.84;;;26.25;41.28
50854;BME280;44154;45.506;-122.806;2022-07-24T09:25:20;100959.38;;;26.34;41.29
50854;BME280;44154;45.506;-122.806;2022-07-24T09:30:44;100957.19;;;26.31;41.30
50854;BME280;44154;45.506;-122.806;2022-07-24T09:35:40;100961.28;;;26.28;41.33
50854;BME280;44154;45.506;-122.806;2022-07-24T09:38:09;100939.25;;;26.18;41.09
50854;BME280;44154;45.506;-122.806;2022-07-24T09:48:22;100956.38;;;26.30;40.97
50854;BME280;44154;45.506;-122.806;2022-07-24T09:50:54;100956.88;;;26.27;41.19
50854;BME280;44154;45.506;-122.806;2022-07-24T09:53:23;100950.50;;;26.22;40.99
50854;BME280;44154;45.506;-122.806;2022-07-24T09:56:01;100947.53;;;26.23;41.29
50854;BME280;44154;45.506;-122.806;2022-07-24T09:58:30;100953.03;;;26.23;41.16
50854;BME280;44154;45.506;-122.806;2022-07-24T10:00:58;100954.09;;;26.22;41.01
50854;BME280;44154;45.506;-122.806;2022-07-24T10:03:28;100953.50;;;26.20;41.23
50854;BME280;44154;45.506;-122.806;2022-07-24T10:05:59;100950.78;;;26.20;41.37
50854;BME280;44154;45.506;-122.806;2022-07-24T10:08:26;100943.06;;;26.12;41.06
50854;BME280;44154;45.506;-122.806;2022-07-24T10:10:53;100962.28;;;26.17;41.08
50854;BME280;44154;45.506;-122.806;2022-07-24T10:13:19;100957.91;;;26.16;41.32
50854;BME280;44154;45.506;-122.806;2022-07-24T10:21:16;100957.31;;;26.14;40.80
50854;BME280;44154;45.506;-122.806;2022-07-24T10:26:44;100961.13;;;26.13;41.22
50854;BME280;44154;45.506;-122.806;2022-07-24T10:31:44;100950.59;;;26.00;41.05
50854;BME280;44154;45.506;-122.806;2022-07-24T10:37:23;100966.53;;;26.03;41.14
50854;BME280;44154;45.506;-122.806;2022-07-24T10:42:28;100956.16;;;26.05;41.03
50854;BME280;44154;45.506;-122.806;2022-07-24T10:45:14;100967.69;;;26.07;40.94
50854;BME280;44154;45.506;-122.806;2022-07-24T10:47:41;100966.88;;;26.06;41.26
50854;BME280;44154;45.506;-122.806;2022-07-24T10:50:07;100946.97;;;25.94;41.38
50854;BME280;44154;45.506;-122.806;2022-07-24T10:52:34;100963.53;;;26.04;41.04
50854;BME280;44154;45.506;-122.806;2022-07-24T11:02:59;100970.84;;;25.98;41.01
50854;BME280;44154;45.506;-122.806;2022-07-24T11:05:31;100946.09;;;25.88;41.27
50854;BME280;44154;45.506;-122.806;2022-07-24T11:10:56;100970.84;;;25.98;41.22
50854;BME280;44154;45.506;-122.806;2022-07-24T11:19:25;100934.50;;;25.81;41.01
50854;BME280;44154;45.506;-122.806;2022-07-24T11:26:53;100960.94;;;25.92;41.32
50854;BME280;44154;45.506;-122.806;2022-07-24T11:29:26;100962.53;;;25.88;40.95
50854;BME280;44154;45.506;-122.806;2022-07-24T11:31:58;100949.88;;;25.82;41.07
50854;BME280;44154;45.506;-122.806;2022-07-24T11:34:26;100961.47;;;25.89;41.11
50854;BME280;44154;45.506;-122.806;2022-07-24T11:36:54;100941.03;;;25.75;41.33
50854;BME280;44154;45.506;-122.806;2022-07-24T11:39:33;100957.31;;;25.87;41.19
50854;BME280;44154;45.506;-122.806;2022-07-24T11:42:04;100965.53;;;25.87;41.18
50854;BME280;44154;45.506;-122.806;2022-07-24T11:44:31;100967.47;;;25.86;41.22
50854;BME280;44154;45.506;-122.806;2022-07-24T11:47:09;100951.47;;;25.73;41.09
50854;BME280;44154;45.506;-122.806;2022-07-24T11:49:46;100969.63;;;25.84;41.07
50854;BME280;44154;45.506;-122.806;2022-07-24T11:54:44;100974.81;;;25.80;41.28
50854;BME280;44154;45.506;-122.806;2022-07-24T11:57:21;100965.78;;;25.80;41.02
50854;BME280;44154;45.506;-122.806;2022-07-24T11:59:49;100968.53;;;25.80;41.08
50854;BME280;44154;45.506;-122.806;2022-07-24T12:02:17;100975.03;;;25.74;41.23
50854;BME280;44154;45.506;-122.806;2022-07-24T12:04:45;100979.16;;;25.76;41.04
50854;BME280;44154;45.506;-122.806;2022-07-24T12:07:22;100975.59;;;25.76;41.11
50854;BME280;44154;45.506;-122.806;2022-07-24T12:09:52;100982.72;;;25.77;41.23
50854;BME280;44154;45.506;-122.806;2022-07-24T12:14:51;100963.69;;;25.65;41.15
50854;BME280;44154;45.506;-122.806;2022-07-24T12:17:18;100978.88;;;25.73;41.04
50854;BME280;44154;45.506;-122.806;2022-07-24T12:19:54;100981.34;;;25.74;41.38
50854;BME280;44154;45.506;-122.806;2022-07-24T12:22:23;100947.66;;;25.52;41.07
50854;BME280;44154;45.506;-122.806;2022-07-24T12:24:50;100957.59;;;25.58;41.39
50854;BME280;44154;45.506;-122.806;2022-07-24T12:30:15;100993.06;;;25.70;41.38
50854;BME280;44154;45.506;-122.806;2022-07-24T12:32:55;100990.31;;;25.70;41.15
50854;BME280;44154;45.506;-122.806;2022-07-24T12:35:22;100984.53;;;25.66;41.30
50854;BME280;44154;45.506;-122.806;2022-07-24T12:37:49;100985.38;;;25.67;41.40
50854;BME280;44154;45.506;-122.806;2022-07-24T12:40:30;100988.94;;;25.67;41.28
50854;BME280;44154;45.506;-122.806;2022-07-24T12:42:58;100990.84;;;25.67;41.24
50854;BME280;44154;45.506;-122.806;2022-07-24T12:45:24;100986.47;;;25.66;41.11
50854;BME280;44154;45.506;-122.806;2022-07-24T12:48:10;100980.66;;;25.62;41.26
50854;BME280;44154;45.506;-122.806;2022-07-24T12:50:37;100951.44;;;25.45;41.06
50854;BME280;44154;45.506;-122.806;2022-07-24T12:53:08;100984.75;;;25.59;41.30
50854;BME280;44154;45.506;-122.806;2022-07-24T12:55:35;100966.53;;;25.48;41.22
50854;BME280;44154;45.506;-122.806;2022-07-24T12:58:04;100911.31;;;25.12;41.04
50854;BME280;44154;45.506;-122.806;2022-07-24T13:00:31;100990.22;;;25.59;41.19
50854;BME280;44154;45.506;-122.806;2022-07-24T13:02:57;100989.06;;;25.55;41.32
50854;BME280;44154;45.506;-122.806;2022-07-24T13:05:40;100969.22;;;25.43;41.36
50854;BME280;44154;45.506;-122.806;2022-07-24T13:08:07;100993.47;;;25.56;41.11
50854;BME280;44154;45.506;-122.806;2022-07-24T13:10:35;100996.22;;;25.56;40.99
50854;BME280;44154;45.506;-122.806;2022-07-24T13:13:02;100998.41;;;25.54;41.05
50854;BME280;44154;45.506;-122.806;2022-07-24T13:15:28;100992.84;;;25.49;41.11
50854;BME280;44154;45.506;-122.806;2022-07-24T13:17:54;101003.28;;;25.52;41.26
50854;BME280;44154;45.506;-122.806;2022-07-24T13:20:20;100990.13;;;25.49;41.20